This is the latest recevied weather packets stored in our database for station/object KG7BDA. If no packets are shown the sender has not sent any weather packets the latest 10 day(s).
| Time | Temp. | Humidity | Pressure | Rain* | Wind** | Luminosity | Snow |
|---|---|---|---|---|---|---|---|
| 1777533674 | 10.56° C | 51% | 1020.4 hPa | 0 mm | - | - | - |
| 1777533315 | 10° C | 53% | 1020.5 hPa | 0 mm | - | - | - |
| 1777532955 | 9.44° C | 55% | 1020.4 hPa | 0 mm | - | - | - |
| 1777532595 | 8.89° C | 58% | 1020.4 hPa | 0 mm | - | - | - |
| 1777532236 | 8.89° C | 58% | 1020.3 hPa | 0 mm | - | - | - |
| 1777531875 | 8.89° C | 60% | 1020.3 hPa | 0 mm | - | - | - |
| 1777531515 | 7.78° C | 63% | 1020.2 hPa | 0 mm | - | - | - |
| 1777531155 | 7.78° C | 66% | 1020.1 hPa | 0 mm | - | - | - |
| 1777530795 | 8.89° C | 65% | 1019.9 hPa | 0 mm | - | - | - |
| 1777530435 | 9.44° C | 59% | 1019.9 hPa | 0 mm | - | - | - |
| 1777530075 | 10° C | 57% | 1020.1 hPa | 0 mm | - | - | - |
| 1777529715 | 10.56° C | 55% | 1020 hPa | 0 mm | - | - | - |
| 1777529355 | 10.56° C | 55% | 1020.1 hPa | 0 mm | - | - | - |
| 1777528995 | 10.56° C | 57% | 1020.1 hPa | 0 mm | - | - | - |
| 1777528635 | 10° C | 58% | 1020.1 hPa | 0 mm | - | - | - |
| 1777528275 | 10.56° C | 55% | 1020 hPa | 0 mm | - | - | - |
| 1777527915 | 11.67° C | 52% | 1019.3 hPa | 0 mm | - | - | - |
| 1777527555 | 11.67° C | 52% | 1019.3 hPa | 0 mm | - | - | - |
| 1777527195 | 11.67° C | 53% | 1019.3 hPa | 0 mm | - | - | - |
| 1777526835 | 11.11° C | 54% | 1019.3 hPa | 0 mm | - | - | - |
| 1777526475 | 11.11° C | 55% | 1019.3 hPa | 0 mm | - | - | - |
| 1777526115 | 10.56° C | 56% | 1019.4 hPa | 0 mm | - | - | - |
| 1777525755 | 10.56° C | 56% | 1019.4 hPa | 0 mm | - | - | - |
| 1777525394 | 10.56° C | 56% | 1019.4 hPa | 0 mm | - | - | - |
| 1777525035 | 10.56° C | 56% | 1019.4 hPa | 0 mm | - | - | - |
* Rain latest hour (hover to see other rain measurements)
** Current wind speed in m/s (hover to see current wind gust speed)